createdAt,value
2022-09-26T00:00:17.118Z,16.47
2022-09-26T00:02:46.572Z,16.59
2022-09-26T00:05:15.898Z,16.68
2022-09-26T00:07:45.029Z,16.61
2022-09-26T00:10:14.203Z,16.66
2022-09-26T00:12:43.305Z,16.68
2022-09-26T00:15:14.307Z,16.55
2022-09-26T00:17:43.468Z,16.45
2022-09-26T00:20:12.602Z,16.40
2022-09-26T00:22:41.910Z,16.42
2022-09-26T00:25:11.389Z,16.46
2022-09-26T00:27:40.562Z,16.38
2022-09-26T00:30:12.075Z,16.15
2022-09-26T00:32:42.813Z,16.46
2022-09-26T00:35:13.627Z,16.22
2022-09-26T00:37:42.824Z,16.01
2022-09-26T00:40:13.193Z,16.35
2022-09-26T00:42:42.429Z,16.26
2022-09-26T00:45:12.845Z,16.42
2022-09-26T00:47:47.657Z,16.39
2022-09-26T00:50:25.276Z,16.51
2022-09-26T00:53:00.620Z,16.56
2022-09-26T00:55:36.306Z,16.46
2022-09-26T00:58:12.999Z,16.22
2022-09-26T01:00:43.813Z,16.27
2022-09-26T01:03:16.729Z,16.13
2022-09-26T01:05:46.620Z,16.02
2022-09-26T01:08:16.948Z,16.21
2022-09-26T01:10:46.293Z,16.14
2022-09-26T01:13:15.778Z,16.07
2022-09-26T01:15:44.894Z,16.06
2022-09-26T01:18:15.672Z,15.90
2022-09-26T01:20:53.534Z,16.17
2022-09-26T01:24:20.245Z,16.24
2022-09-26T01:27:30.912Z,15.99
2022-09-26T01:30:17.918Z,16.02
2022-09-26T01:33:36.709Z,15.96
2022-09-26T01:36:46.831Z,16.09
2022-09-26T01:39:33.786Z,16.09
2022-09-26T01:42:18.074Z,16.06
2022-09-26T01:44:56.540Z,15.93
2022-09-26T01:47:38.281Z,15.81
2022-09-26T01:50:16.761Z,16.01
2022-09-26T01:52:53.355Z,15.94
2022-09-26T01:55:29.653Z,15.98
2022-09-26T01:58:06.869Z,15.90
2022-09-26T02:00:38.247Z,16.05
2022-09-26T02:03:14.994Z,16.07
2022-09-26T02:05:49.251Z,15.74
2022-09-26T02:08:21.845Z,15.91
2022-09-26T02:10:57.778Z,15.80
2022-09-26T02:13:33.041Z,15.93
2022-09-26T02:16:09.315Z,15.82
2022-09-26T02:18:46.441Z,15.59
2022-09-26T02:21:20.319Z,15.76
2022-09-26T02:23:51.169Z,15.72
2022-09-26T02:26:21.028Z,15.68
2022-09-26T02:28:50.338Z,15.56
2022-09-26T02:31:25.693Z,15.51
2022-09-26T02:33:56.847Z,15.48
2022-09-26T02:36:33.738Z,15.45
2022-09-26T02:39:04.546Z,15.38
2022-09-26T02:42:14.640Z,15.37
2022-09-26T02:45:03.208Z,15.33
2022-09-26T02:48:09.017Z,15.31
2022-09-26T02:51:04.467Z,15.36
2022-09-26T02:54:06.815Z,15.27
2022-09-26T02:57:04.694Z,15.36
2022-09-26T02:59:49.946Z,15.27
2022-09-26T03:02:29.337Z,15.25
2022-09-26T03:05:22.096Z,15.14
2022-09-26T03:08:00.806Z,15.04
2022-09-26T03:10:33.101Z,15.03
2022-09-26T03:13:07.921Z,14.96
2022-09-26T03:15:38.660Z,15.11
2022-09-26T03:18:13.658Z,14.98
2022-09-26T03:20:44.161Z,15.09
2022-09-26T03:23:14.791Z,15.06
2022-09-26T03:25:46.374Z,15.06
2022-09-26T03:28:19.173Z,14.98
2022-09-26T03:30:48.761Z,14.95
2022-09-26T03:33:27.948Z,15.06
2022-09-26T03:36:00.291Z,14.97
2022-09-26T03:38:30.932Z,14.96
2022-09-26T03:41:24.400Z,14.83
2022-09-26T03:44:17.364Z,14.83
2022-09-26T03:47:06.869Z,14.81
2022-09-26T03:49:43.295Z,14.95
2022-09-26T03:52:14.779Z,14.96
2022-09-26T03:54:47.096Z,14.92
2022-09-26T03:57:19.107Z,14.99
2022-09-26T03:59:59.840Z,14.86
2022-09-26T04:02:45.618Z,14.78
2022-09-26T04:05:28.536Z,14.68
2022-09-26T04:07:57.810Z,14.75
2022-09-26T04:10:30.011Z,14.79
2022-09-26T04:13:00.158Z,14.57
2022-09-26T04:15:30.061Z,14.57
2022-09-26T04:18:08.482Z,14.62
2022-09-26T04:20:37.837Z,14.64
2022-09-26T04:23:07.131Z,14.45
2022-09-26T04:25:40.281Z,14.46
2022-09-26T04:28:09.501Z,14.38
2022-09-26T04:30:40.179Z,14.39
2022-09-26T04:33:10.715Z,14.20
2022-09-26T04:35:49.674Z,14.20
2022-09-26T04:38:19.030Z,14.09
2022-09-26T04:40:49.661Z,14.18
2022-09-26T04:43:18.874Z,13.99
2022-09-26T04:45:48.475Z,14.03
2022-09-26T04:48:17.939Z,13.94
2022-09-26T04:51:09.548Z,13.89
2022-09-26T04:53:40.542Z,13.67
2022-09-26T04:56:22.386Z,13.62
2022-09-26T04:58:52.636Z,13.64
2022-09-26T05:01:23.327Z,13.68
2022-09-26T05:04:01.033Z,13.66
2022-09-26T05:06:31.458Z,13.63
2022-09-26T05:09:04.360Z,13.76
2022-09-26T05:11:53.625Z,13.55
2022-09-26T05:14:23.174Z,13.50
2022-09-26T05:16:52.858Z,13.41
2022-09-26T05:19:22.030Z,13.46
2022-09-26T05:22:26.673Z,13.38
2022-09-26T05:25:13.274Z,13.33
2022-09-26T05:27:44.334Z,13.35
2022-09-26T05:30:13.950Z,13.40
2022-09-26T05:32:46.138Z,13.50
2022-09-26T05:35:15.709Z,13.30
2022-09-26T05:37:45.326Z,13.36
2022-09-26T05:40:32.006Z,13.22
2022-09-26T05:43:04.152Z,13.40
2022-09-26T05:45:33.489Z,13.38
2022-09-26T05:48:04.842Z,13.48
2022-09-26T05:50:36.985Z,13.42
2022-09-26T05:53:07.956Z,13.64
2022-09-26T05:55:38.429Z,13.71
2022-09-26T05:58:09.926Z,13.54
2022-09-26T06:01:06.771Z,13.71
2022-09-26T06:03:37.927Z,13.86
2022-09-26T06:06:20.860Z,13.76
2022-09-26T06:08:56.373Z,13.78
2022-09-26T06:11:33.419Z,13.75
2022-09-26T06:14:04.000Z,13.63
2022-09-26T06:16:34.371Z,13.52
2022-09-26T06:19:03.728Z,13.65
2022-09-26T06:21:33.863Z,13.76
2022-09-26T06:24:08.106Z,13.68
2022-09-26T06:26:38.244Z,13.68
2022-09-26T06:29:08.838Z,13.50
2022-09-26T06:31:40.733Z,13.49
2022-09-26T06:34:13.381Z,13.53
2022-09-26T06:36:54.500Z,13.54
2022-09-26T06:39:23.650Z,12.88
2022-09-26T06:41:53.278Z,13.49
2022-09-26T06:44:53.509Z,13.39
2022-09-26T06:47:25.498Z,13.44
2022-09-26T06:50:23.069Z,13.37
2022-09-26T06:52:56.190Z,13.14
2022-09-26T06:55:27.621Z,13.11
2022-09-26T06:57:58.574Z,13.16
2022-09-26T07:00:31.530Z,13.15
2022-09-26T07:03:20.663Z,13.06
2022-09-26T07:05:54.935Z,12.99
2022-09-26T07:08:43.253Z,12.97
2022-09-26T07:11:34.996Z,13.16
2022-09-26T07:14:05.302Z,13.09
2022-09-26T07:16:36.030Z,13.21
2022-09-26T07:19:29.977Z,13.05
2022-09-26T07:22:07.484Z,13.14
2022-09-26T07:24:56.905Z,13.41
2022-09-26T07:27:26.097Z,13.47
2022-09-26T07:29:56.517Z,13.62
2022-09-26T07:32:28.221Z,13.60
2022-09-26T07:35:04.536Z,13.56
2022-09-26T07:37:33.832Z,14.04
2022-09-26T07:40:03.869Z,14.25
2022-09-26T07:42:34.764Z,14.56
2022-09-26T07:48:12.018Z,15.00
2022-09-26T07:51:04.591Z,15.47
2022-09-26T07:53:45.245Z,15.68
2022-09-26T07:56:53.550Z,15.82
2022-09-26T07:59:43.017Z,15.87
2022-09-26T08:02:25.021Z,15.90
2022-09-26T08:05:00.928Z,16.00
2022-09-26T08:07:32.239Z,15.93
2022-09-26T08:10:09.802Z,15.91
2022-09-26T08:12:58.848Z,16.08
2022-09-26T08:15:46.603Z,16.47
2022-09-26T08:18:24.759Z,16.39
2022-09-26T08:21:43.982Z,16.46
2022-09-26T08:24:13.265Z,16.19
2022-09-26T08:27:01.490Z,16.39
2022-09-26T08:29:35.112Z,16.59
2022-09-26T08:32:05.128Z,16.89
2022-09-26T08:34:36.624Z,16.96
2022-09-26T08:37:29.574Z,16.97
2022-09-26T08:40:17.392Z,16.86
2022-09-26T08:43:16.341Z,17.17
2022-09-26T08:46:45.512Z,17.21
2022-09-26T08:49:49.147Z,17.74
2022-09-26T08:52:43.463Z,17.96
2022-09-26T08:55:18.348Z,18.21
2022-09-26T08:57:51.758Z,18.10
2022-09-26T09:00:25.209Z,18.53
2022-09-26T09:03:18.446Z,18.39
2022-09-26T09:05:51.473Z,18.36
2022-09-26T09:08:29.480Z,18.05
2022-09-26T09:11:19.126Z,17.81
2022-09-26T09:14:16.235Z,17.80
2022-09-26T09:17:19.438Z,17.95
2022-09-26T09:20:04.495Z,18.29
2022-09-26T09:23:33.044Z,18.01
2022-09-26T09:29:38.741Z,18.44
2022-09-26T09:32:48.674Z,18.56
2022-09-26T09:35:36.400Z,18.74
2022-09-26T09:38:18.878Z,18.59
2022-09-26T09:41:11.975Z,18.35
2022-09-26T09:43:45.251Z,18.14
2022-09-26T09:46:19.756Z,17.86
2022-09-26T09:48:49.773Z,17.50
2022-09-26T09:51:40.099Z,17.36
2022-09-26T09:54:30.127Z,17.63
2022-09-26T09:57:47.041Z,17.62
2022-09-26T10:00:19.208Z,17.94
2022-09-26T10:03:26.807Z,18.26
2022-09-26T10:05:59.887Z,18.57
2022-09-26T10:08:37.171Z,18.50
2022-09-26T10:11:24.215Z,18.90
2022-09-26T10:14:07.208Z,18.93
2022-09-26T10:17:21.278Z,18.68
2022-09-26T10:20:00.351Z,18.27
2022-09-26T10:22:37.511Z,17.61
2022-09-26T10:25:26.457Z,17.14
2022-09-26T10:27:59.286Z,16.95
2022-09-26T10:30:34.227Z,17.21
2022-09-26T10:33:26.903Z,17.73
2022-09-26T10:36:18.277Z,18.32
2022-09-26T10:39:11.845Z,18.78
2022-09-26T10:41:45.262Z,18.60
2022-09-26T10:44:28.055Z,18.27
2022-09-26T10:47:18.040Z,17.89
2022-09-26T10:50:10.585Z,17.56
2022-09-26T10:53:08.514Z,17.39
2022-09-26T10:55:43.880Z,17.35
2022-09-26T10:58:19.988Z,17.05
2022-09-26T11:00:51.732Z,17.00
2022-09-26T11:03:40.301Z,16.75
2022-09-26T11:06:41.419Z,16.85
2022-09-26T11:09:21.609Z,17.00
2022-09-26T11:12:28.826Z,17.78
2022-09-26T11:15:11.294Z,18.69
2022-09-26T11:17:48.166Z,19.14
2022-09-26T11:20:36.572Z,19.25
2022-09-26T11:23:18.010Z,19.16
2022-09-26T11:26:01.375Z,18.74
2022-09-26T11:28:36.583Z,18.53
2022-09-26T11:31:44.211Z,19.19
2022-09-26T11:34:32.417Z,19.79
2022-09-26T11:37:36.596Z,19.51
2022-09-26T11:40:29.253Z,19.06
2022-09-26T11:43:19.334Z,18.91
2022-09-26T11:46:16.665Z,19.36
2022-09-26T11:49:40.768Z,19.81
2022-09-26T11:52:49.459Z,20.47
2022-09-26T11:55:32.357Z,20.57
2022-09-26T11:58:09.662Z,20.31
2022-09-26T12:00:48.283Z,20.59
2022-09-26T12:03:51.334Z,20.59
2022-09-26T12:06:26.988Z,20.91
2022-09-26T12:09:22.176Z,20.37
2022-09-26T12:12:03.244Z,20.48
2022-09-26T12:14:50.737Z,20.02
2022-09-26T12:17:35.206Z,19.32
2022-09-26T12:20:20.429Z,18.66
2022-09-26T12:23:00.008Z,17.94
2022-09-26T12:25:41.938Z,17.96
2022-09-26T12:29:03.679Z,18.40
2022-09-26T12:31:52.115Z,19.20
2022-09-26T12:34:42.247Z,19.42
2022-09-26T12:37:32.371Z,20.39
2022-09-26T12:40:29.240Z,20.34
2022-09-26T12:43:23.460Z,20.64
2022-09-26T12:46:10.052Z,20.72
2022-09-26T12:48:56.098Z,19.89
2022-09-26T12:51:37.972Z,19.83
2022-09-26T12:54:48.540Z,19.21
2022-09-26T12:57:32.967Z,18.76
2022-09-26T13:00:18.636Z,18.71
2022-09-26T13:04:01.362Z,17.95
2022-09-26T13:07:18.209Z,17.49
2022-09-26T13:10:15.345Z,17.28
2022-09-26T13:13:11.321Z,16.98
2022-09-26T13:15:54.524Z,16.93
2022-09-26T13:18:35.218Z,16.77
2022-09-26T13:21:12.141Z,16.78
2022-09-26T13:23:53.790Z,16.92
2022-09-26T13:26:29.590Z,17.31
2022-09-26T13:29:20.170Z,17.66
2022-09-26T13:31:58.901Z,18.57
2022-09-26T13:34:35.218Z,18.97
2022-09-26T13:37:10.053Z,19.76
2022-09-26T13:39:49.237Z,19.69
2022-09-26T13:42:27.332Z,19.15
2022-09-26T13:45:09.810Z,18.71
2022-09-26T13:47:49.381Z,18.63
2022-09-26T13:50:27.200Z,18.43
2022-09-26T13:53:15.245Z,18.16
2022-09-26T13:55:45.560Z,18.27
2022-09-26T13:58:26.470Z,18.20
2022-09-26T14:00:57.629Z,18.14
2022-09-26T14:03:46.200Z,18.18
2022-09-26T14:06:34.943Z,18.09
2022-09-26T14:09:39.691Z,17.62
2022-09-26T14:12:34.557Z,17.60
2022-09-26T14:15:27.137Z,17.55
2022-09-26T14:18:50.524Z,17.50
2022-09-26T14:21:40.960Z,17.53
2022-09-26T14:24:47.118Z,17.46
2022-09-26T14:27:44.372Z,17.09
2022-09-26T14:30:30.320Z,17.11
2022-09-26T14:33:09.340Z,17.20
2022-09-26T14:35:40.218Z,17.13
2022-09-26T14:38:16.216Z,17.00
2022-09-26T14:40:55.459Z,16.87
2022-09-26T14:43:26.284Z,16.90
2022-09-26T14:46:04.154Z,16.82
2022-09-26T14:48:38.450Z,16.82
2022-09-26T14:51:27.223Z,16.90
2022-09-26T14:54:01.427Z,16.80
2022-09-26T14:56:59.682Z,16.86
2022-09-26T14:59:42.424Z,16.97
2022-09-26T15:02:31.480Z,16.89
2022-09-26T15:05:19.326Z,16.56
2022-09-26T15:07:52.463Z,16.72
2022-09-26T15:10:36.542Z,16.50
2022-09-26T15:13:20.988Z,16.65
2022-09-26T15:15:58.820Z,16.68
2022-09-26T15:18:42.038Z,16.81
2022-09-26T15:21:21.654Z,16.81
2022-09-26T15:23:54.971Z,16.84
2022-09-26T15:26:28.436Z,16.87
2022-09-26T15:28:59.284Z,16.82
2022-09-26T15:31:38.316Z,16.78
2022-09-26T15:34:16.455Z,16.76
2022-09-26T15:36:49.670Z,16.60
2022-09-26T15:39:44.510Z,16.38
2022-09-26T15:42:45.199Z,16.54
2022-09-26T15:45:33.373Z,16.62
2022-09-26T15:48:05.097Z,16.60
2022-09-26T15:50:43.159Z,16.35
2022-09-26T15:53:25.367Z,16.58
2022-09-26T15:56:00.660Z,16.31
2022-09-26T15:58:37.641Z,16.44
2022-09-26T16:01:08.695Z,16.37
2022-09-26T16:03:46.030Z,16.06
2022-09-26T16:06:34.214Z,16.25
2022-09-26T16:09:09.757Z,16.26
2022-09-26T16:11:50.972Z,16.05
2022-09-26T16:14:30.175Z,15.92
2022-09-26T16:17:12.689Z,15.95
2022-09-26T16:19:47.964Z,15.92
2022-09-26T16:22:40.499Z,16.08
2022-09-26T16:25:32.120Z,15.79
2022-09-26T16:28:39.509Z,15.92
2022-09-26T16:31:36.390Z,15.82
2022-09-26T16:34:30.023Z,15.88
2022-09-26T16:36:59.721Z,15.82
2022-09-26T16:39:31.402Z,15.86
2022-09-26T16:42:05.886Z,15.90
2022-09-26T16:44:41.165Z,15.65
2022-09-26T16:47:42.885Z,15.95
2022-09-26T16:50:26.809Z,15.85
2022-09-26T16:52:56.205Z,15.89
2022-09-26T16:55:27.926Z,15.90
2022-09-26T16:58:01.482Z,15.92
2022-09-26T17:00:52.720Z,15.79
2022-09-26T17:03:25.347Z,15.70
2022-09-26T17:05:57.032Z,15.74
2022-09-26T17:08:27.084Z,15.82
2022-09-26T17:10:58.345Z,15.57
2022-09-26T17:13:31.097Z,15.55
2022-09-26T17:16:03.862Z,15.34
2022-09-26T17:18:33.908Z,15.49
2022-09-26T17:21:03.339Z,15.54
2022-09-26T17:23:40.381Z,15.57
2022-09-26T17:26:19.730Z,15.70
2022-09-26T17:28:50.323Z,15.80
2022-09-26T17:31:21.401Z,15.74
2022-09-26T17:33:54.523Z,15.78
2022-09-26T17:36:27.704Z,15.77
2022-09-26T17:38:59.566Z,15.66
2022-09-26T17:41:29.887Z,15.76
2022-09-26T17:44:01.141Z,15.80
2022-09-26T17:46:31.921Z,15.63
2022-09-26T17:49:05.327Z,15.78
2022-09-26T17:51:36.272Z,15.73
2022-09-26T17:54:07.539Z,15.69
2022-09-26T17:56:37.036Z,15.58
2022-09-26T17:59:18.729Z,15.57
2022-09-26T18:01:54.389Z,15.60
2022-09-26T18:04:27.103Z,15.44
2022-09-26T18:06:58.498Z,15.55
2022-09-26T18:09:33.201Z,15.33
2022-09-26T18:12:05.788Z,15.20
2022-09-26T18:14:35.577Z,15.42
2022-09-26T18:17:06.750Z,15.41
2022-09-26T18:19:38.453Z,15.40
2022-09-26T18:22:12.222Z,15.16
2022-09-26T18:24:41.570Z,15.32
2022-09-26T18:27:15.328Z,15.42
2022-09-26T18:29:48.034Z,15.26
2022-09-26T18:32:24.652Z,15.24
2022-09-26T18:34:53.905Z,15.26
2022-09-26T18:37:23.081Z,15.20
2022-09-26T18:39:55.148Z,15.22
2022-09-26T18:42:25.737Z,15.22
2022-09-26T18:45:02.548Z,15.17
2022-09-26T18:47:38.188Z,15.11
2022-09-26T18:50:13.603Z,15.28
2022-09-26T18:52:43.364Z,15.33
2022-09-26T18:55:38.674Z,15.25
2022-09-26T18:58:27.400Z,15.17
2022-09-26T19:00:59.904Z,15.04
2022-09-26T19:03:32.993Z,14.96
2022-09-26T19:06:06.806Z,14.92
2022-09-26T19:08:38.636Z,14.85
2022-09-26T19:11:14.080Z,14.77
2022-09-26T19:13:44.666Z,14.77
2022-09-26T19:16:14.215Z,14.85
2022-09-26T19:18:45.246Z,14.77
2022-09-26T19:21:24.505Z,14.91
2022-09-26T19:23:54.615Z,14.85
2022-09-26T19:26:31.703Z,14.74
2022-09-26T19:29:01.534Z,14.96
2022-09-26T19:31:30.840Z,14.93
2022-09-26T19:34:01.832Z,14.80
2022-09-26T19:36:31.067Z,14.36
2022-09-26T19:39:00.242Z,14.60
2022-09-26T19:41:29.377Z,14.82
2022-09-26T19:43:58.622Z,14.60
2022-09-26T19:46:30.594Z,14.73
2022-09-26T19:49:01.863Z,14.64
2022-09-26T19:51:32.770Z,14.65
2022-09-26T19:54:06.124Z,14.49
2022-09-26T19:56:35.701Z,14.29
2022-09-26T19:59:05.011Z,14.36
2022-09-26T20:01:34.354Z,14.27
2022-09-26T20:04:05.222Z,14.17
2022-09-26T20:06:34.430Z,14.27
2022-09-26T20:09:03.917Z,14.17
2022-09-26T20:11:33.060Z,14.18
2022-09-26T20:14:19.960Z,14.02
2022-09-26T20:16:49.937Z,13.94
2022-09-26T20:19:29.818Z,13.94
2022-09-26T20:22:03.347Z,13.92
2022-09-26T20:24:34.574Z,13.93
2022-09-26T20:27:07.652Z,13.91
2022-09-26T20:29:51.092Z,13.98
2022-09-26T20:32:20.383Z,13.92
2022-09-26T20:34:50.909Z,13.99
2022-09-26T20:37:23.536Z,13.97
2022-09-26T20:39:53.169Z,13.95
2022-09-26T20:42:28.081Z,14.11
2022-09-26T20:44:57.505Z,14.20
2022-09-26T20:47:28.111Z,14.08
2022-09-26T20:50:01.442Z,14.05
2022-09-26T20:52:31.866Z,14.10
2022-09-26T20:55:01.225Z,13.90
2022-09-26T20:57:30.633Z,14.00
2022-09-26T20:59:59.784Z,13.89
2022-09-26T21:02:31.376Z,14.00
2022-09-26T21:05:03.394Z,14.04
2022-09-26T21:07:34.142Z,13.88
2022-09-26T21:10:03.473Z,13.88
2022-09-26T21:12:32.699Z,13.81
2022-09-26T21:15:01.864Z,13.84
2022-09-26T21:17:31.837Z,13.72
2022-09-26T21:20:03.156Z,13.71
2022-09-26T21:22:52.686Z,13.58
2022-09-26T21:25:24.500Z,13.57
2022-09-26T21:27:58.451Z,13.43
2022-09-26T21:30:27.667Z,13.48
2022-09-26T21:32:59.379Z,13.51
2022-09-26T21:35:33.235Z,13.54
2022-09-26T21:38:02.892Z,13.58
2022-09-26T21:40:38.286Z,13.49
2022-09-26T21:43:15.170Z,13.50
2022-09-26T21:45:46.471Z,13.42
2022-09-26T21:48:17.157Z,13.41
2022-09-26T21:50:56.750Z,13.43
2022-09-26T21:53:31.505Z,13.38
2022-09-26T21:56:08.162Z,13.40
2022-09-26T21:58:41.396Z,13.52
2022-09-26T22:01:10.601Z,13.36
2022-09-26T22:03:39.753Z,13.47
2022-09-26T22:06:11.056Z,13.41
2022-09-26T22:08:41.132Z,13.53
2022-09-26T22:11:11.082Z,13.52
2022-09-26T22:13:40.301Z,13.54
2022-09-26T22:16:11.525Z,13.58
2022-09-26T22:18:41.808Z,13.60
2022-09-26T22:21:14.067Z,13.54
2022-09-26T22:23:43.396Z,13.65
2022-09-26T22:26:12.461Z,13.64
2022-09-26T22:28:41.616Z,13.52
2022-09-26T22:31:10.738Z,13.40
2022-09-26T22:33:40.237Z,13.63
2022-09-26T22:36:11.951Z,13.54
2022-09-26T22:38:41.302Z,13.50
2022-09-26T22:41:10.939Z,13.59
2022-09-26T22:43:40.112Z,13.47
2022-09-26T22:46:14.037Z,13.57
2022-09-26T22:48:46.644Z,13.47
2022-09-26T22:51:18.677Z,13.58
2022-09-26T22:53:48.042Z,13.55
2022-09-26T22:56:18.201Z,13.43
2022-09-26T22:58:50.463Z,13.44
2022-09-26T23:01:23.321Z,13.44
2022-09-26T23:03:53.366Z,13.28
2022-09-26T23:06:25.390Z,13.31
2022-09-26T23:08:55.098Z,13.28
2022-09-26T23:11:24.968Z,13.23
2022-09-26T23:13:54.644Z,13.25
2022-09-26T23:16:27.186Z,13.06
2022-09-26T23:18:57.047Z,13.01
2022-09-26T23:21:28.768Z,13.07
2022-09-26T23:23:59.042Z,13.05
2022-09-26T23:26:31.956Z,13.03
2022-09-26T23:29:01.532Z,13.04
2022-09-26T23:31:30.940Z,13.12
2022-09-26T23:34:00.098Z,13.12
2022-09-26T23:36:30.695Z,13.14
2022-09-26T23:39:00.205Z,13.20
2022-09-26T23:41:29.403Z,13.18
2022-09-26T23:43:58.695Z,13.28
2022-09-26T23:46:27.946Z,13.30
2022-09-26T23:48:57.127Z,13.18
2022-09-26T23:51:26.243Z,13.33
2022-09-26T23:53:57.309Z,13.34
2022-09-26T23:56:26.449Z,13.39
2022-09-26T23:58:58.349Z,13.33
